2000 TD (2000018S15190)


On this page: IBTrACS data - Map and Plots - Positions - Intensities - Original source data

Summary

Start Jan 18
End Jan 26
Basin SP
LMI 40 kt
Source wellington
In WMO? Yes
Previous storm 2000 IRIS (SP)
Previous in basin 2000 IRIS (SP)
Concurrent storms 2000 TD (SP)
2000 MISSING (SI)
2000 JO (SP)
2000 KIRRILY (SI)
2000 CONNIE (SI)
Next in basin 2000 JO (SP)
Next storm 2000 MISSING (SI)

top of page IBTrACS Data: File Access

top of page HURSAT Data: File Access

Image of storm

top of page Plots:

Map of storm track will not appear if FTP is down
Time series of cyclone Maximum Sustained Wind will not appear if FTP is down
Time series of cyclone Minimum Central Pressure will not appear if FTP is down

top of page Track Data:Position

wellington
Date Lat Lon
2000-01-18 00:00:00 -14.6 -170.3
2000-01-18 06:00:00 -14.0 -170.9
2000-01-18 12:00:00 -13.4 -171.6
2000-01-18 18:00:00 -13.1 -172.5
2000-01-19 00:00:00 -13.0 -173.6
2000-01-19 06:00:00 -13.2 -174.7
2000-01-19 12:00:00 -13.6 -175.5
2000-01-19 18:00:00 -13.9 -175.5
2000-01-20 00:00:00 -14.0 -174.0
2000-01-20 06:00:00 -14.0 -172.0
2000-01-20 12:00:00 -13.9 -171.4
2000-01-20 18:00:00 -13.9 -171.7
2000-01-21 00:00:00 -14.2 -172.1
2000-01-21 06:00:00 -14.7 -172.4
2000-01-21 12:00:00 -15.4 -172.9
2000-01-21 18:00:00 -16.1 -173.5
2000-01-22 00:00:00 -16.8 -174.2
2000-01-22 06:00:00 -17.4 -175.2
2000-01-22 12:00:00 -18.0 -176.0
2000-01-22 18:00:00 -18.4 -176.7
2000-01-23 00:00:00 -18.6 -176.7
2000-01-23 06:00:00 -18.5 -176.1
2000-01-23 12:00:00 -18.5 -175.4
2000-01-23 18:00:00 -19.0 -175.0
2000-01-24 00:00:00 -20.1 -175.1
wellington
2000-01-24 06:00:00 -20.8 -175.0
2000-01-24 12:00:00 -21.5 -174.5
2000-01-24 18:00:00 -22.5 -173.5
2000-01-25 00:00:00 -22.5 -173.3
2000-01-25 06:00:00 -23.2 -172.5
2000-01-25 12:00:00 -23.6 -171.8
2000-01-25 18:00:00 -24.4 -171.0
2000-01-26 00:00:00 -25.0 -169.0
2000-01-26 06:00:00 -26.2 -167.8

top of pageTrack Data:Intensity

wellington
Date Wind Pres
2000-01-18 00:00:00 25. 1006.
2000-01-18 06:00:00 25. 1006.
2000-01-18 12:00:00 25. 1004.
2000-01-18 18:00:00 25. 1004.
2000-01-19 00:00:00 25. 1004.
2000-01-19 06:00:00 25. 1004.
2000-01-19 12:00:00 25. 1004.
2000-01-19 18:00:00 25. 1004.
2000-01-20 00:00:00 25. 1004.
2000-01-20 06:00:00 25. 1003.
2000-01-20 12:00:00 25. 1003.
2000-01-20 18:00:00 25. 1000.
2000-01-21 00:00:00 25. 1000.
2000-01-21 06:00:00 25. 1000.
2000-01-21 12:00:00 25. 1000.
2000-01-21 18:00:00 25. 1000.
2000-01-22 00:00:00 25. 1000.
2000-01-22 06:00:00 25. 1000.
2000-01-22 12:00:00 25. 1004.
2000-01-22 18:00:00 25. 1004.
2000-01-23 00:00:00 25. 1004.
2000-01-23 06:00:00 25. 1004.
2000-01-23 12:00:00 30. 998.
2000-01-23 18:00:00 30. 998.
2000-01-24 00:00:00 25. 998.
wellington
2000-01-24 06:00:00 35. 997.
2000-01-24 12:00:00 35. 997.
2000-01-24 18:00:00 35. 996.
2000-01-25 00:00:00 35. 995.
2000-01-25 06:00:00 35. 996.
2000-01-25 12:00:00 35. 997.
2000-01-25 18:00:00 35. 997.
2000-01-26 00:00:00 40. 998.
2000-01-26 06:00:00 40. 1000.

top of page Links to source data

Source Source file Format
wellington TC_BT_1967_2006.csv:Line=6546:TD Text table